createdAt,value
2022-09-26T00:01:46.275Z,8.97
2022-09-26T00:04:52.491Z,8.75
2022-09-26T00:07:58.245Z,8.91
2022-09-26T00:11:08.928Z,8.97
2022-09-26T00:14:19.851Z,8.96
2022-09-26T00:17:28.416Z,8.91
2022-09-26T00:20:34.480Z,8.85
2022-09-26T00:23:42.287Z,8.84
2022-09-26T00:26:48.308Z,8.88
2022-09-26T00:29:54.359Z,8.96
2022-09-26T00:33:02.887Z,8.99
2022-09-26T00:36:16.529Z,8.85
2022-09-26T00:39:22.505Z,8.74
2022-09-26T00:42:28.487Z,8.80
2022-09-26T00:45:35.257Z,8.84
2022-09-26T00:48:55.475Z,8.90
2022-09-26T00:52:09.770Z,8.86
2022-09-26T00:55:22.397Z,8.98
2022-09-26T00:58:35.622Z,8.96
2022-09-26T01:01:42.125Z,8.93
2022-09-26T01:04:52.165Z,8.98
2022-09-26T01:08:00.722Z,8.99
2022-09-26T01:11:17.347Z,9.05
2022-09-26T01:14:25.305Z,9.18
2022-09-26T01:17:33.101Z,9.20
2022-09-26T01:21:05.217Z,9.22
2022-09-26T01:24:49.412Z,9.33
2022-09-26T01:28:26.869Z,9.47
2022-09-26T01:32:13.639Z,9.66
2022-09-26T01:35:47.161Z,9.69
2022-09-26T01:39:21.595Z,9.58
2022-09-26T01:42:43.000Z,9.60
2022-09-26T01:46:02.881Z,9.36
2022-09-26T01:49:23.807Z,9.19
2022-09-26T01:52:42.772Z,8.76
2022-09-26T01:55:56.471Z,8.51
2022-09-26T01:59:12.980Z,8.41
2022-09-26T02:02:27.666Z,8.25
2022-09-26T02:05:45.936Z,8.18
2022-09-26T02:09:00.810Z,8.05
2022-09-26T02:12:26.771Z,7.97
2022-09-26T02:15:40.724Z,7.88
2022-09-26T02:18:58.484Z,7.90
2022-09-26T02:22:07.349Z,7.90
2022-09-26T02:25:14.524Z,7.94
2022-09-26T02:28:21.021Z,7.91
2022-09-26T02:31:41.967Z,7.90
2022-09-26T02:34:50.998Z,7.88
2022-09-26T02:38:06.590Z,7.86
2022-09-26T02:41:52.374Z,7.91
2022-09-26T02:45:31.491Z,7.72
2022-09-26T02:49:05.448Z,7.61
2022-09-26T02:52:37.253Z,7.56
2022-09-26T02:56:06.979Z,7.49
2022-09-26T02:59:30.327Z,7.51
2022-09-26T03:02:48.851Z,7.58
2022-09-26T03:06:03.971Z,7.64
2022-09-26T03:09:14.962Z,7.53
2022-09-26T03:12:28.167Z,7.60
2022-09-26T03:15:41.047Z,7.59
2022-09-26T03:18:59.500Z,7.57
2022-09-26T03:22:06.048Z,7.57
2022-09-26T03:25:17.759Z,7.55
2022-09-26T03:28:38.235Z,7.65
2022-09-26T03:31:50.662Z,7.67
2022-09-26T03:34:57.793Z,7.74
2022-09-26T03:38:04.978Z,7.71
2022-09-26T03:41:20.850Z,7.66
2022-09-26T03:44:53.533Z,7.49
2022-09-26T03:48:09.219Z,7.44
2022-09-26T03:51:17.526Z,7.51
2022-09-26T03:54:25.004Z,7.56
2022-09-26T03:57:30.950Z,7.56
2022-09-26T04:00:55.807Z,7.46
2022-09-26T04:04:01.616Z,7.50
2022-09-26T04:07:08.406Z,7.42
2022-09-26T04:10:16.399Z,7.37
2022-09-26T04:13:49.933Z,7.24
2022-09-26T04:16:54.050Z,7.22
2022-09-26T04:20:10.022Z,7.21
2022-09-26T04:23:18.809Z,7.16
2022-09-26T04:26:26.755Z,7.10
2022-09-26T04:29:32.870Z,7.08
2022-09-26T04:33:03.780Z,7.10
2022-09-26T04:36:18.567Z,7.08
2022-09-26T04:39:25.734Z,7.11
2022-09-26T04:42:37.169Z,7.09
2022-09-26T04:45:46.117Z,7.20
2022-09-26T04:48:57.547Z,7.24
2022-09-26T04:52:05.134Z,7.33
2022-09-26T04:55:12.372Z,7.34
2022-09-26T04:58:20.227Z,7.30
2022-09-26T05:01:29.247Z,7.38
2022-09-26T05:05:00.595Z,7.42
2022-09-26T05:08:14.836Z,7.28
2022-09-26T05:11:22.261Z,7.33
2022-09-26T05:14:36.029Z,7.32
2022-09-26T05:17:45.786Z,7.28
2022-09-26T05:20:56.120Z,7.37
2022-09-26T05:24:14.337Z,7.56
2022-09-26T05:27:21.506Z,7.57
2022-09-26T05:30:31.580Z,7.44
2022-09-26T05:33:38.952Z,7.47
2022-09-26T05:36:48.095Z,7.44
2022-09-26T05:40:08.556Z,7.53
2022-09-26T05:43:27.714Z,7.58
2022-09-26T05:46:36.422Z,7.54
2022-09-26T05:49:55.402Z,7.49
2022-09-26T05:53:06.490Z,7.66
2022-09-26T05:56:19.784Z,7.67
2022-09-26T06:00:01.104Z,7.66
2022-09-26T06:03:25.548Z,7.59
2022-09-26T06:06:45.133Z,7.62
2022-09-26T06:10:05.586Z,7.66
2022-09-26T06:13:31.463Z,7.93
2022-09-26T06:16:39.359Z,7.97
2022-09-26T06:19:45.907Z,7.87
2022-09-26T06:22:51.918Z,7.84
2022-09-26T06:26:00.530Z,8.03
2022-09-26T06:29:07.817Z,8.12
2022-09-26T06:32:15.575Z,8.08
2022-09-26T06:35:25.388Z,7.98
2022-09-26T06:38:54.702Z,8.16
2022-09-26T06:42:03.257Z,8.40
2022-09-26T06:45:15.126Z,8.44
2022-09-26T06:48:40.160Z,8.55
2022-09-26T06:51:58.068Z,8.72
2022-09-26T06:55:07.063Z,8.88
2022-09-26T06:58:15.690Z,8.88
2022-09-26T07:01:50.840Z,8.82
2022-09-26T07:05:15.724Z,8.86
2022-09-26T07:09:00.395Z,8.92
2022-09-26T07:12:15.092Z,8.91
2022-09-26T07:15:31.061Z,8.99
2022-09-26T07:18:38.250Z,9.16
2022-09-26T07:22:10.221Z,9.29
2022-09-26T07:25:33.622Z,9.19
2022-09-26T07:28:41.218Z,9.31
2022-09-26T07:31:49.928Z,9.45
2022-09-26T07:35:37.274Z,9.50
2022-09-26T07:38:44.062Z,9.52
2022-09-26T07:41:50.502Z,9.68
2022-09-26T07:48:37.330Z,10.04
2022-09-26T07:52:06.214Z,10.63
2022-09-26T07:55:31.242Z,10.69
2022-09-26T07:58:58.078Z,10.80
2022-09-26T08:02:36.558Z,10.79
2022-09-26T08:05:46.926Z,10.77
2022-09-26T08:09:43.256Z,10.51
2022-09-26T08:12:49.479Z,10.07
2022-09-26T08:16:11.884Z,10.03
2022-09-26T08:19:23.318Z,10.00
2022-09-26T08:22:32.147Z,9.91
2022-09-26T08:25:38.777Z,10.20
2022-09-26T08:29:00.239Z,10.53
2022-09-26T08:32:06.745Z,10.49
2022-09-26T08:35:15.192Z,10.40
2022-09-26T08:39:00.152Z,10.70
2022-09-26T08:42:59.575Z,10.51
2022-09-26T08:46:55.395Z,10.49
2022-09-26T08:50:32.763Z,10.66
2022-09-26T08:53:52.131Z,10.50
2022-09-26T08:57:21.385Z,10.46
2022-09-26T09:00:31.968Z,10.76
2022-09-26T09:03:56.658Z,11.01
2022-09-26T09:07:14.821Z,10.59
2022-09-26T09:10:33.255Z,10.76
2022-09-26T09:14:26.632Z,11.11
2022-09-26T09:17:55.327Z,11.24
2022-09-26T09:21:42.510Z,11.35
2022-09-26T09:25:07.502Z,10.88
2022-09-26T09:28:36.523Z,10.90
2022-09-26T09:31:51.074Z,11.15
2022-09-26T09:35:21.744Z,11.19
2022-09-26T09:38:54.083Z,11.18
2022-09-26T09:42:18.297Z,11.12
2022-09-26T09:45:44.527Z,10.98
2022-09-26T09:49:05.440Z,11.10
2022-09-26T09:52:34.418Z,11.39
2022-09-26T09:56:02.869Z,11.11
2022-09-26T09:59:57.730Z,11.19
2022-09-26T10:03:22.801Z,11.33
2022-09-26T10:06:44.151Z,11.45
2022-09-26T10:10:08.436Z,11.07
2022-09-26T10:13:45.227Z,11.21
2022-09-26T10:17:22.731Z,11.20
2022-09-26T10:20:57.767Z,11.08
2022-09-26T10:24:09.398Z,11.36
2022-09-26T10:27:38.364Z,11.44
2022-09-26T10:30:52.687Z,11.66
2022-09-26T10:34:09.213Z,11.56
2022-09-26T10:37:27.610Z,11.12
2022-09-26T10:41:00.681Z,11.40
2022-09-26T10:44:28.244Z,11.86
2022-09-26T10:47:46.406Z,11.74
2022-09-26T10:51:37.560Z,11.98
2022-09-26T10:54:55.519Z,12.33
2022-09-26T10:58:14.015Z,12.53
2022-09-26T11:01:30.274Z,12.26
2022-09-26T11:05:02.445Z,13.44
2022-09-26T11:08:32.160Z,13.85
2022-09-26T11:11:55.577Z,14.11
2022-09-26T11:15:13.251Z,13.90
2022-09-26T11:18:34.743Z,14.67
2022-09-26T11:21:54.413Z,13.82
2022-09-26T11:25:14.971Z,13.98
2022-09-26T11:28:31.832Z,14.41
2022-09-26T11:32:00.131Z,14.79
2022-09-26T11:35:06.761Z,14.09
2022-09-26T11:38:39.284Z,13.77
2022-09-26T11:42:26.159Z,13.80
2022-09-26T11:45:56.421Z,13.52
2022-09-26T11:50:17.448Z,13.60
2022-09-26T11:54:25.015Z,13.53
2022-09-26T11:57:48.847Z,13.46
2022-09-26T12:01:11.593Z,13.50
2022-09-26T12:05:00.002Z,13.63
2022-09-26T12:08:38.888Z,14.54
2022-09-26T12:12:02.195Z,15.29
2022-09-26T12:15:24.870Z,16.19
2022-09-26T12:18:54.884Z,15.31
2022-09-26T12:22:33.428Z,15.64
2022-09-26T12:26:01.653Z,16.14
2022-09-26T12:29:41.144Z,16.32
2022-09-26T12:33:13.361Z,15.64
2022-09-26T12:36:40.634Z,16.26
2022-09-26T12:40:31.712Z,15.72
2022-09-26T12:44:23.786Z,16.11
2022-09-26T12:48:09.528Z,16.81
2022-09-26T12:51:35.248Z,17.32
2022-09-26T12:55:11.160Z,15.98
2022-09-26T12:58:49.061Z,15.76
2022-09-26T13:02:48.847Z,16.05
2022-09-26T13:06:34.855Z,15.72
2022-09-26T13:10:13.724Z,14.49
2022-09-26T13:13:51.632Z,13.96
2022-09-26T13:17:14.089Z,13.91
2022-09-26T13:20:30.793Z,13.91
2022-09-26T13:23:46.025Z,14.00
2022-09-26T13:27:04.947Z,14.40
2022-09-26T13:30:21.342Z,14.94
2022-09-26T13:33:39.748Z,15.33
2022-09-26T13:36:50.028Z,15.12
2022-09-26T13:40:25.274Z,15.28
2022-09-26T13:44:01.752Z,14.99
2022-09-26T13:47:24.971Z,14.93
2022-09-26T13:50:44.285Z,15.47
2022-09-26T13:54:11.851Z,15.43
2022-09-26T13:57:39.137Z,15.47
2022-09-26T14:00:53.644Z,15.50
2022-09-26T14:04:21.793Z,15.13
2022-09-26T14:08:13.711Z,14.79
2022-09-26T14:11:30.929Z,14.31
2022-09-26T14:14:50.184Z,14.27
2022-09-26T14:18:41.200Z,14.77
2022-09-26T14:22:03.397Z,15.01
2022-09-26T14:25:58.002Z,15.15
2022-09-26T14:29:37.953Z,15.09
2022-09-26T14:32:48.707Z,15.11
2022-09-26T14:35:54.379Z,15.12
2022-09-26T14:39:01.679Z,14.97
2022-09-26T14:42:19.792Z,15.10
2022-09-26T14:45:48.889Z,15.00
2022-09-26T14:49:05.541Z,14.79
2022-09-26T14:52:28.977Z,14.38
2022-09-26T14:55:35.110Z,14.18
2022-09-26T14:58:54.152Z,14.21
2022-09-26T15:02:31.722Z,13.88
2022-09-26T15:05:38.430Z,13.77
2022-09-26T15:08:44.566Z,13.61
2022-09-26T15:12:00.136Z,13.61
2022-09-26T15:15:40.732Z,13.61
2022-09-26T15:18:56.811Z,13.57
2022-09-26T15:22:09.230Z,13.65
2022-09-26T15:25:25.510Z,13.35
2022-09-26T15:28:35.020Z,13.24
2022-09-26T15:31:46.442Z,13.09
2022-09-26T15:34:57.019Z,13.10
2022-09-26T15:38:12.742Z,13.11
2022-09-26T15:41:43.122Z,13.19
2022-09-26T15:44:50.146Z,13.17
2022-09-26T15:47:56.624Z,13.13
2022-09-26T15:51:18.093Z,13.03
2022-09-26T15:54:44.825Z,12.87
2022-09-26T15:57:57.643Z,12.90
2022-09-26T16:01:04.539Z,12.90
2022-09-26T16:04:23.295Z,12.90
2022-09-26T16:07:33.767Z,12.91
2022-09-26T16:10:39.965Z,12.69
2022-09-26T16:13:54.415Z,12.54
2022-09-26T16:17:22.653Z,12.38
2022-09-26T16:20:33.479Z,12.31
2022-09-26T16:23:49.559Z,12.25
2022-09-26T16:26:55.161Z,12.20
2022-09-26T16:30:05.356Z,12.15
2022-09-26T16:33:32.579Z,12.07
2022-09-26T16:36:48.215Z,12.03
2022-09-26T16:40:04.537Z,11.98
2022-09-26T16:43:30.167Z,11.92
2022-09-26T16:46:48.707Z,11.89
2022-09-26T16:49:56.293Z,11.78
2022-09-26T16:53:05.067Z,11.61
2022-09-26T16:56:22.934Z,11.51
2022-09-26T16:59:36.299Z,11.54
2022-09-26T17:02:39.608Z,11.25
2022-09-26T17:05:51.891Z,11.18
2022-09-26T17:09:17.490Z,11.27
2022-09-26T17:12:26.044Z,11.39
2022-09-26T17:15:36.165Z,11.45
2022-09-26T17:18:43.615Z,11.47
2022-09-26T17:21:49.599Z,11.44
2022-09-26T17:24:57.137Z,11.41
2022-09-26T17:28:05.810Z,11.30
2022-09-26T17:31:20.194Z,11.21
2022-09-26T17:34:29.899Z,11.16
2022-09-26T17:37:35.828Z,11.13
2022-09-26T17:40:48.494Z,11.06
2022-09-26T17:44:01.253Z,11.13
2022-09-26T17:47:09.377Z,11.12
2022-09-26T17:50:26.645Z,10.87
2022-09-26T17:53:49.757Z,10.76
2022-09-26T17:56:59.137Z,10.82
2022-09-26T18:00:23.043Z,10.88
2022-09-26T18:03:35.846Z,10.95
2022-09-26T18:06:43.240Z,11.02
2022-09-26T18:09:49.517Z,11.01
2022-09-26T18:13:25.279Z,10.96
2022-09-26T18:16:33.717Z,10.94
2022-09-26T18:19:43.063Z,10.74
2022-09-26T18:22:58.791Z,10.71
2022-09-26T18:26:06.420Z,10.63
2022-09-26T18:29:21.952Z,10.62
2022-09-26T18:32:40.971Z,10.54
2022-09-26T18:35:49.612Z,10.53
2022-09-26T18:38:56.360Z,10.46
2022-09-26T18:42:12.247Z,10.35
2022-09-26T18:45:33.241Z,10.34
2022-09-26T18:48:45.261Z,10.29
2022-09-26T18:51:51.106Z,10.28
2022-09-26T18:55:08.987Z,10.23
2022-09-26T18:58:34.786Z,10.14
2022-09-26T19:01:48.225Z,10.12
2022-09-26T19:05:03.695Z,9.95
2022-09-26T19:08:09.657Z,9.78
2022-09-26T19:11:20.984Z,9.46
2022-09-26T19:14:30.531Z,9.22
2022-09-26T19:17:36.155Z,9.21
2022-09-26T19:20:44.732Z,9.43
2022-09-26T19:23:57.663Z,9.50
2022-09-26T19:27:09.265Z,9.54
2022-09-26T19:30:24.865Z,9.68
2022-09-26T19:33:34.231Z,9.69
2022-09-26T19:36:45.005Z,9.63
2022-09-26T19:39:53.909Z,9.43
2022-09-26T19:43:02.689Z,9.47
2022-09-26T19:46:27.694Z,9.39
2022-09-26T19:49:35.025Z,9.30
2022-09-26T19:52:43.251Z,9.23
2022-09-26T19:55:51.410Z,9.27
2022-09-26T19:58:57.216Z,9.42
2022-09-26T20:02:04.570Z,9.30
2022-09-26T20:05:22.653Z,9.38
2022-09-26T20:08:31.369Z,9.51
2022-09-26T20:11:39.903Z,9.24
2022-09-26T20:14:46.364Z,9.08
2022-09-26T20:17:55.337Z,9.15
2022-09-26T20:21:03.502Z,9.14
2022-09-26T20:24:22.109Z,8.95
2022-09-26T20:27:32.013Z,8.74
2022-09-26T20:30:50.697Z,8.74
2022-09-26T20:33:59.433Z,8.73
2022-09-26T20:37:09.525Z,8.76
2022-09-26T20:40:25.629Z,8.73
2022-09-26T20:43:38.899Z,8.71
2022-09-26T20:47:06.619Z,8.74
2022-09-26T20:50:33.838Z,8.75
2022-09-26T20:53:40.639Z,8.56
2022-09-26T20:56:54.014Z,8.49
2022-09-26T21:00:00.554Z,8.45
2022-09-26T21:03:15.998Z,8.41
2022-09-26T21:06:31.096Z,8.35
2022-09-26T21:09:37.145Z,8.34
2022-09-26T21:12:45.362Z,8.33
2022-09-26T21:15:51.350Z,8.36
2022-09-26T21:18:57.296Z,8.37
2022-09-26T21:22:03.125Z,8.38
2022-09-26T21:25:29.280Z,8.41
2022-09-26T21:28:37.980Z,8.43
2022-09-26T21:31:49.322Z,8.39
2022-09-26T21:35:05.710Z,8.41
2022-09-26T21:38:11.964Z,8.33
2022-09-26T21:41:18.120Z,8.30
2022-09-26T21:44:35.734Z,8.32
2022-09-26T21:47:41.562Z,8.41
2022-09-26T21:50:57.936Z,8.37
2022-09-26T21:54:15.317Z,8.33
2022-09-26T21:57:30.015Z,8.29
2022-09-26T22:00:38.224Z,8.27
2022-09-26T22:03:43.962Z,8.12
2022-09-26T22:06:49.528Z,8.10
2022-09-26T22:09:55.164Z,8.01
2022-09-26T22:13:01.313Z,8.02
2022-09-26T22:16:15.505Z,8.00
2022-09-26T22:19:21.038Z,7.93
2022-09-26T22:22:26.642Z,7.91
2022-09-26T22:25:32.480Z,7.78
2022-09-26T22:28:38.342Z,7.65
2022-09-26T22:31:47.948Z,7.60
2022-09-26T22:34:56.176Z,7.52
2022-09-26T22:38:01.794Z,7.46
2022-09-26T22:41:10.016Z,7.43
2022-09-26T22:44:15.777Z,7.34
2022-09-26T22:47:23.953Z,7.33
2022-09-26T22:50:29.561Z,7.42
2022-09-26T22:53:38.881Z,7.42
2022-09-26T22:56:44.544Z,7.43
2022-09-26T22:59:50.143Z,7.40
2022-09-26T23:02:58.320Z,7.37
2022-09-26T23:06:06.312Z,7.34
2022-09-26T23:09:12.081Z,7.43
2022-09-26T23:12:19.254Z,7.42
2022-09-26T23:15:28.660Z,7.48
2022-09-26T23:18:38.231Z,7.56
2022-09-26T23:21:43.811Z,7.57
2022-09-26T23:24:49.424Z,7.63
2022-09-26T23:27:55.043Z,7.70
2022-09-26T23:31:09.322Z,7.67
2022-09-26T23:34:17.748Z,7.61
2022-09-26T23:37:23.333Z,7.61
2022-09-26T23:40:29.722Z,7.55
2022-09-26T23:43:35.728Z,7.34
2022-09-26T23:46:41.295Z,7.17
2022-09-26T23:49:49.590Z,6.97
2022-09-26T23:52:55.100Z,6.91
2022-09-26T23:56:07.333Z,6.80
2022-09-26T23:59:12.851Z,6.56
